Time;durP1;ratioP1;P1;durP2;ratioP2;P2;SDS_P1;SDS_P2;PMS_P1;PMS_P2;Temp;Humidity;BMP_temperature;BMP_pressure;BME280_temperature;BME280_humidity;BME280_pressure;Samples;Min_cycle;Max_cycle;Signal;HPM_P1;HPM_P2
2019/06/24 00:02:10;;;;;;;5.8;3.6;;;;;;;;;;;;;
2019/06/24 00:04:37;;;;;;;3.7;3.3;;;;;;;;;;;;;
2019/06/24 00:07:02;;;;;;;5.8;3.7;;;;;;;;;;;;;
2019/06/24 00:09:28;;;;;;;4.6;4.1;;;;;;;;;;;;;
2019/06/24 00:11:57;;;;;;;6.4;4;;;;;;;;;;;;;
2019/06/24 00:14:19;;;;;;;4;3.6;;;;;;;;;;;;;
2019/06/24 00:16:47;;;;;;;5.6;3.7;;;;;;;;;;;;;
2019/06/24 00:19:16;;;;;;;5.5;3.6;;;;;;;;;;;;;
2019/06/24 00:21:38;;;;;;;5.3;3.8;;;;;;;;;;;;;
2019/06/24 00:24:04;;;;;;;5.9;3.6;;;;;;;;;;;;;
2019/06/24 00:26:32;;;;;;;3.8;3.3;;;;;;;;;;;;;
2019/06/24 00:29:01;;;;;;;4.8;3.7;;;;;;;;;;;;;
2019/06/24 00:31:30;;;;;;;4.8;3.8;;;;;;;;;;;;;
2019/06/24 00:33:53;;;;;;;4.3;3.9;;;;;;;;;;;;;
2019/06/24 00:36:27;;;;;;;4.1;3.6;;;;;;;;;;;;;
2019/06/24 00:39:00;;;;;;;5.7;3.7;;;;;;;;;;;;;
2019/06/24 00:41:35;;;;;;;4.9;3.6;;;;;;;;;;;;;
2019/06/24 00:44:01;;;;;;;5.8;3.7;;;;;;;;;;;;;
2019/06/24 00:46:26;;;;;;;6.9;4;;;;;;;;;;;;;
2019/06/24 00:49:01;;;;;;;5;4;;;;;;;;;;;;;
2019/06/24 00:51:24;;;;;;;4.5;3.9;;;;;;;;;;;;;
2019/06/24 00:53:59;;;;;;;5.7;4.1;;;;;;;;;;;;;
2019/06/24 00:56:25;;;;;;;4.7;4;;;;;;;;;;;;;
2019/06/24 00:58:50;;;;;;;5.6;4.2;;;;;;;;;;;;;
2019/06/24 01:01:27;;;;;;;5.1;4.1;;;;;;;;;;;;;
2019/06/24 01:03:44;;;;;;;5.2;4.1;;;;;;;;;;;;;
2019/06/24 01:06:10;;;;;;;5;3.9;;;;;;;;;;;;;
2019/06/24 01:08:43;;;;;;;4.2;3.8;;;;;;;;;;;;;
2019/06/24 01:11:01;;;;;;;7.1;4;;;;;;;;;;;;;
2019/06/24 01:13:28;;;;;;;6.2;3.7;;;;;;;;;;;;;
2019/06/24 01:15:53;;;;;;;5.8;3.8;;;;;;;;;;;;;
2019/06/24 01:18:20;;;;;;;8.5;3.9;;;;;;;;;;;;;
2019/06/24 01:20:47;;;;;;;5.2;4;;;;;;;;;;;;;
2019/06/24 01:23:11;;;;;;;6.1;3.6;;;;;;;;;;;;;
2019/06/24 01:25:38;;;;;;;4.8;3.9;;;;;;;;;;;;;
2019/06/24 01:28:02;;;;;;;5.9;3.9;;;;;;;;;;;;;
2019/06/24 01:30:27;;;;;;;4.2;3.8;;;;;;;;;;;;;
2019/06/24 01:32:52;;;;;;;4;3.6;;;;;;;;;;;;;
2019/06/24 01:35:24;;;;;;;6.5;3.4;;;;;;;;;;;;;
2019/06/24 01:37:46;;;;;;;5.5;3.7;;;;;;;;;;;;;
2019/06/24 01:40:11;;;;;;;3.9;3.5;;;;;;;;;;;;;
2019/06/24 01:42:37;;;;;;;6.6;3.8;;;;;;;;;;;;;
2019/06/24 01:45:03;;;;;;;4.2;3.8;;;;;;;;;;;;;
2019/06/24 01:47:29;;;;;;;4.3;3.6;;;;;;;;;;;;;
2019/06/24 01:49:56;;;;;;;4.3;3.5;;;;;;;;;;;;;
2019/06/24 01:52:19;;;;;;;5.1;3.6;;;;;;;;;;;;;
2019/06/24 01:54:44;;;;;;;4.4;3.5;;;;;;;;;;;;;
2019/06/24 01:57:10;;;;;;;4;3.6;;;;;;;;;;;;;
2019/06/24 01:59:36;;;;;;;4.4;3.6;;;;;;;;;;;;;
2019/06/24 02:02:03;;;;;;;4.8;3.9;;;;;;;;;;;;;
2019/06/24 02:04:31;;;;;;;6.7;3.6;;;;;;;;;;;;;
2019/06/24 02:06:57;;;;;;;4.1;3.5;;;;;;;;;;;;;
2019/06/24 02:09:19;;;;;;;4.1;3.2;;;;;;;;;;;;;
2019/06/24 02:11:45;;;;;;;5.6;3.5;;;;;;;;;;;;;
2019/06/24 02:14:18;;;;;;;3.8;3.5;;;;;;;;;;;;;
2019/06/24 02:16:36;;;;;;;3.5;3.2;;;;;;;;;;;;;
2019/06/24 02:19:03;;;;;;;4.1;3.6;;;;;;;;;;;;;
2019/06/24 02:21:30;;;;;;;4.5;3.6;;;;;;;;;;;;;
2019/06/24 02:23:54;;;;;;;5.7;3.8;;;;;;;;;;;;;
2019/06/24 02:26:22;;;;;;;5.9;3.5;;;;;;;;;;;;;
2019/06/24 02:28:49;;;;;;;4.4;3.4;;;;;;;;;;;;;
2019/06/24 02:31:13;;;;;;;4.1;3.1;;;;;;;;;;;;;
2019/06/24 02:33:38;;;;;;;4.1;3.1;;;;;;;;;;;;;
2019/06/24 02:36:04;;;;;;;4.3;3.3;;;;;;;;;;;;;
2019/06/24 02:38:33;;;;;;;4.5;3.6;;;;;;;;;;;;;
2019/06/24 02:40:54;;;;;;;4.6;3.5;;;;;;;;;;;;;
2019/06/24 02:43:20;;;;;;;5.5;3.5;;;;;;;;;;;;;
2019/06/24 02:45:47;;;;;;;5.1;3.6;;;;;;;;;;;;;
2019/06/24 02:48:18;;;;;;;4.4;3.8;;;;;;;;;;;;;
2019/06/24 02:50:44;;;;;;;6.6;4.1;;;;;;;;;;;;;
2019/06/24 02:53:12;;;;;;;4.1;3.7;;;;;;;;;;;;;
2019/06/24 02:55:39;;;;;;;4.9;4;;;;;;;;;;;;;
2019/06/24 02:58:03;;;;;;;5.6;3.9;;;;;;;;;;;;;
2019/06/24 03:00:27;;;;;;;5.2;4;;;;;;;;;;;;;
2019/06/24 03:02:53;;;;;;;4.7;4.2;;;;;;;;;;;;;
2019/06/24 03:05:19;;;;;;;6.7;4.1;;;;;;;;;;;;;
2019/06/24 03:07:48;;;;;;;4.2;3.8;;;;;;;;;;;;;
2019/06/24 03:10:14;;;;;;;4.8;4.3;;;;;;;;;;;;;
2019/06/24 03:12:46;;;;;;;5.2;4.3;;;;;;;;;;;;;
2019/06/24 03:15:11;;;;;;;4;3.5;;;;;;;;;;;;;
2019/06/24 03:17:37;;;;;;;4.1;3.7;;;;;;;;;;;;;
2019/06/24 03:20:02;;;;;;;5.4;3.9;;;;;;;;;;;;;
2019/06/24 03:22:29;;;;;;;3.9;3.1;;;;;;;;;;;;;
2019/06/24 03:24:53;;;;;;;5.1;3.1;;;;;;;;;;;;;
2019/06/24 03:27:18;;;;;;;5.6;3.4;;;;;;;;;;;;;
2019/06/24 03:29:45;;;;;;;4.8;3.5;;;;;;;;;;;;;
2019/06/24 03:32:10;;;;;;;5.5;3.4;;;;;;;;;;;;;
2019/06/24 03:34:34;;;;;;;5.2;3.4;;;;;;;;;;;;;
2019/06/24 03:37:00;;;;;;;5.4;3;;;;;;;;;;;;;
2019/06/24 03:39:27;;;;;;;3;2.7;;;;;;;;;;;;;
2019/06/24 03:41:53;;;;;;;4.5;2.6;;;;;;;;;;;;;
2019/06/24 03:44:19;;;;;;;3.4;2.6;;;;;;;;;;;;;
2019/06/24 03:46:50;;;;;;;2.9;2.6;;;;;;;;;;;;;
2019/06/24 03:49:09;;;;;;;6;2.9;;;;;;;;;;;;;
2019/06/24 03:51:42;;;;;;;6.7;2.9;;;;;;;;;;;;;
2019/06/24 03:54:04;;;;;;;4.7;2.7;;;;;;;;;;;;;
2019/06/24 03:56:29;;;;;;;3.6;2.8;;;;;;;;;;;;;
2019/06/24 03:58:55;;;;;;;3.9;3.4;;;;;;;;;;;;;
2019/06/24 04:03:07;;;;;;;4;3.6;;;;;;;15.24;85.73438;942.5903;;;;
2019/06/24 04:05:31;;;;;;;3.9;3.5;;;;;;;14.96;87.50195;942.5893;;;;
2019/06/24 04:11:29;;;;;;;6.2;3.6;;;;;;;15;87.39355;942.5892;;;;
2019/06/24 04:13:40;;;;;;;6;3.8;;;;;;;15.07;86.96777;942.5823;;;;
2019/06/24 04:16:13;;;;;;;5.4;3.7;;;;;;;15.17;85.9043;942.6527;;;;
2019/06/24 04:18:45;;;;;;;6.8;3.5;;;;;;;15.24;85.375;942.6121;;;;
2019/06/24 04:21:26;;;;;;;4.6;2.7;;;;;;;15.27;85.20801;942.5486;;;;
2019/06/24 04:23:57;;;;;;;4;2.8;;;;;;;15.39;84.52734;942.5226;;;;
2019/06/24 04:26:22;;;;;;;4.4;2.6;;;;;;;15.6;83.74707;942.5051;;;;
2019/06/24 04:28:55;;;;;;;7.2;2.9;;;;;;;15.56;84.31543;942.4841;;;;
2019/06/24 04:39:13;;;;;;;5.3;3.1;;;;;;;15.05;86.66406;942.4732;;;;
2019/06/24 04:41:47;;;;;;;4.6;3.3;;;;;;;15.09;86.66211;942.4603;;;;
2019/06/24 04:44:14;;;;;;;5.6;3.2;;;;;;;15.1;86.84766;942.4595;;;;
2019/06/24 04:46:46;;;;;;;4.1;3.3;;;;;;;15.31;85.68652;942.5148;;;;
2019/06/24 04:49:28;;;;;;;5;3.6;;;;;;;15.22;86.15625;942.4902;;;;
2019/06/24 04:51:54;;;;;;;5.6;3.4;;;;;;;15.34;85.47461;942.486;;;;
2019/06/24 04:54:22;;;;;;;4.2;3.3;;;;;;;15.26;85.78418;942.4595;;;;
2019/06/24 04:56:58;;;;;;;8.3;3.5;;;;;;;15.42;85.09961;942.4387;;;;
2019/06/24 04:59:49;;;;;;;5.5;3.3;;;;;;;15.43;85.11133;942.4033;;;;
2019/06/24 05:02:40;;;;;;;3.8;2.6;;;;;;;15.65;84.46191;942.4274;;;;
2019/06/24 05:05:14;;;;;;;6;2.3;;;;;;;16.68;81.17383;942.3922;;;;
2019/06/24 05:07:45;;;;;;;5.2;2.1;;;;;;;18.44;74.03516;942.4269;;;;
2019/06/24 05:10:33;;;;;;;3.3;1.7;;;;;;;19.45;69.41602;942.4213;;;;
2019/06/24 05:13:06;;;;;;;3.5;1.7;;;;;;;20.65;64.21875;942.4355;;;;
2019/06/24 05:15:36;;;;;;;1.8;1.3;;;;;;;21.3;61.71582;942.4041;;;;
2019/06/24 05:18:12;;;;;;;3.6;1.4;;;;;;;22.05;59.84961;942.345;;;;
2019/06/24 05:20:44;;;;;;;4.4;1.6;;;;;;;22.81;56.80566;942.3379;;;;
2019/06/24 05:23:14;;;;;;;4.8;1.3;;;;;;;23.49;54.02344;942.3699;;;;
2019/06/24 05:25:49;;;;;;;3.1;1.3;;;;;;;23.39;55.23438;942.3275;;;;
2019/06/24 05:28:27;;;;;;;2.1;1.3;;;;;;;24;53.07422;942.3544;;;;
2019/06/24 05:30:52;;;;;;;1.7;1.4;;;;;;;23.99;52.4834;942.3215;;;;
2019/06/24 05:33:17;;;;;;;1.9;1.3;;;;;;;23.74;54.80664;942.4182;;;;
2019/06/24 05:35:46;;;;;;;3.7;1.6;;;;;;;23.65;53.85547;942.408;;;;
2019/06/24 05:38:13;;;;;;;1.6;1.1;;;;;;;23.31;54.40137;942.4292;;;;
2019/06/24 05:40:46;;;;;;;2;1.2;;;;;;;23.5;54.22461;942.4208;;;;
2019/06/24 05:43:15;;;;;;;1.9;1.2;;;;;;;23.55;53.81836;942.3873;;;;
2019/06/24 05:45:45;;;;;;;3.8;1.2;;;;;;;24.08;52.75293;942.4741;;;;
2019/06/24 05:48:11;;;;;;;3;1.2;;;;;;;24.21;53.29883;942.4244;;;;
2019/06/24 05:50:36;;;;;;;3.2;1.1;;;;;;;24.73;50.63672;942.5109;;;;
2019/06/24 05:53:16;;;;;;;1.5;1.1;;;;;;;25.5;48.62012;942.4525;;;;
2019/06/24 05:55:41;;;;;;;2.7;1.1;;;;;;;25.94;47.35742;942.4394;;;;
2019/06/24 05:58:15;;;;;;;3.5;1;;;;;;;25.84;47.73535;942.4281;;;;
2019/06/24 06:00:38;;;;;;;2.6;1.1;;;;;;;26.03;47.69629;942.3654;;;;
2019/06/24 06:03:01;;;;;;;13;1.5;;;;;;;26.24;48.00293;942.3558;;;;
2019/06/24 06:05:32;;;;;;;3.9;1.3;;;;;;;26.54;46.22461;942.3059;;;;
2019/06/24 06:08:12;;;;;;;1.5;1.1;;;;;;;26.64;45.15723;942.2728;;;;
2019/06/24 06:10:39;;;;;;;1.1;0.9;;;;;;;26.63;45.58203;942.27;;;;
2019/06/24 06:13:08;;;;;;;1.7;1.1;;;;;;;27.04;43.89258;942.3301;;;;
2019/06/24 06:15:43;;;;;;;1.7;1.1;;;;;;;28.01;41.5293;942.2919;;;;
2019/06/24 06:18:15;;;;;;;2.2;1;;;;;;;28.08;44.56543;942.2944;;;;
2019/06/24 06:20:41;;;;;;;3.9;1.5;;;;;;;28.96;39.43848;942.3027;;;;
2019/06/24 06:23:14;;;;;;;3.1;1.1;;;;;;;28.91;39.80371;942.2932;;;;
2019/06/24 06:25:42;;;;;;;2;1.2;;;;;;;29.21;39.00684;942.3365;;;;
2019/06/24 06:28:07;;;;;;;4.3;1.4;;;;;;;29.62;38.10156;942.318;;;;
2019/06/24 06:30:34;;;;;;;2.3;1.3;;;;;;;28.61;43.47559;942.2933;;;;
2019/06/24 06:33:01;;;;;;;2.4;1;;;;;;;29.56;39.2041;942.307;;;;
2019/06/24 06:35:36;;;;;;;2;1;;;;;;;29.73;38.09863;942.2953;;;;
2019/06/24 06:38:09;;;;;;;3.8;1.2;;;;;;;29.47;38.98242;942.2855;;;;
2019/06/24 06:43:15;;;;;;;3.4;0.9;;;;;;;30.4;40.44727;942.2981;;;;
2019/06/24 06:49:03;;;;;;;1.8;1;;;;;;;31.57;34.81738;942.2092;;;;
2019/06/24 06:51:35;;;;;;;2.8;1;;;;;;;31.85;34.68359;942.2491;;;;
2019/06/24 06:54:18;;;;;;;3.8;1.3;;;;;;;32.41;33.82617;942.3137;;;;
2019/06/24 06:56:42;;;;;;;2.5;1;;;;;;;30.08;37.10059;942.2559;;;;
2019/06/24 06:59:09;;;;;;;5.6;1.3;;;;;;;30.87;37.02344;942.1924;;;;
2019/06/24 07:01:43;;;;;;;1.6;1;;;;;;;31.35;39.35938;942.1987;;;;
2019/06/24 07:04:29;;;;;;;4.6;1.3;;;;;;;32.37;33.35547;942.2506;;;;
2019/06/24 07:07:02;;;;;;;2.8;1.2;;;;;;;32.75;32.27832;942.298;;;;
2019/06/24 07:09:34;;;;;;;2;1;;;;;;;32.63;32.93066;942.2747;;;;
2019/06/24 07:12:06;;;;;;;2.9;1.4;;;;;;;32.39;35.49121;942.3125;;;;
2019/06/24 07:14:37;;;;;;;4.4;2;;;;;;;32.9;33.03418;942.2238;;;;
2019/06/24 07:17:06;;;;;;;2.5;1;;;;;;;33.2;31.09766;942.2218;;;;
2019/06/24 07:19:38;;;;;;;3.3;1.1;;;;;;;33.27;31.16211;942.2228;;;;
2019/06/24 07:22:10;;;;;;;2.3;0.9;;;;;;;33.11;30.75488;942.1591;;;;
2019/06/24 07:24:33;;;;;;;1.7;0.9;;;;;;;32.83;30.73535;942.2094;;;;
2019/06/24 07:27:05;;;;;;;1.1;1;;;;;;;31.82;33.11133;942.0748;;;;
2019/06/24 07:29:29;;;;;;;2.2;1;;;;;;;32.43;34.99023;942.0605;;;;
2019/06/24 07:31:58;;;;;;;1;0.8;;;;;;;32.68;33.6543;942.0543;;;;
2019/06/24 07:34:32;;;;;;;2.7;0.9;;;;;;;33.69;34.99219;942.0229;;;;
2019/06/24 07:37:03;;;;;;;1.5;0.8;;;;;;;33.87;34.63281;942.0084;;;;
2019/06/24 07:39:30;;;;;;;3.1;0.9;;;;;;;33.62;33.80762;941.9441;;;;
2019/06/24 07:42:19;;;;;;;1.5;0.9;;;;;;;34.5;32.47559;941.9464;;;;
2019/06/24 07:44:42;;;;;;;1.3;0.8;;;;;;;34.61;32.4707;941.8641;;;;
2019/06/24 07:47:23;;;;;;;1.8;0.7;;;;;;;35.9;28.19922;941.8773;;;;
2019/06/24 07:50:16;;;;;;;3.7;1;;;;;;;35.59;30.07617;941.8571;;;;
2019/06/24 07:52:43;;;;;;;2;0.8;;;;;;;36.27;28.8877;941.8546;;;;
2019/06/24 07:55:12;;;;;;;2.2;0.8;;;;;;;36.44;27.22852;941.7639;;;;
2019/06/24 07:57:36;;;;;;;1.5;0.7;;;;;;;36.17;29.58301;941.8033;;;;
2019/06/24 08:00:10;;;;;;;2.1;0.8;;;;;;;36.46;27.95508;941.7569;;;;
2019/06/24 08:03:00;;;;;;;1.7;0.7;;;;;;;36.73;27.14844;941.7392;;;;
2019/06/24 08:05:24;;;;;;;1.9;0.8;;;;;;;36.97;26.36328;941.7354;;;;
2019/06/24 08:08:10;;;;;;;3.4;0.9;;;;;;;36.43;28.48633;941.6603;;;;
2019/06/24 08:10:44;;;;;;;1.5;0.7;;;;;;;36.31;26.9668;941.6256;;;;
2019/06/24 08:13:17;;;;;;;2.1;0.7;;;;;;;35.72;27.35547;941.6414;;;;
2019/06/24 08:15:51;;;;;;;1.7;0.9;;;;;;;34.68;32.07813;941.5455;;;;
2019/06/24 08:18:22;;;;;;;0.9;0.8;;;;;;;34.64;34.61914;941.5975;;;;
2019/06/24 08:20:56;;;;;;;2.1;0.8;;;;;;;34.44;29.85645;941.5553;;;;
2019/06/24 08:26:19;;;;;;;1.6;0.7;;;;;;;35.97;29.94434;941.5098;;;;
2019/06/24 08:28:30;;;;;;;1.9;0.8;;;;;;;36.67;26.58789;941.5255;;;;
2019/06/24 08:31:07;;;;;;;2.2;0.8;;;;;;;37.34;26.27539;941.5572;;;;
2019/06/24 08:33:58;;;;;;;;;;;;;;;;;;;;;
2019/06/24 08:40:17;;;;;;;3.1;0.8;;;;;;;35.38;30.72754;941.5025;;;;
2019/06/24 08:43:02;;;;;;;1;0.7;;;;;;;35.13;28.34473;941.4439;;;;
2019/06/24 08:45:42;;;;;;;2.8;0.9;;;;;;;34.95;31.62598;941.4612;;;;
2019/06/24 08:48:07;;;;;;;4.2;0.9;;;;;;;34.85;33.22363;941.4933;;;;
2019/06/24 08:50:46;;;;;;;3.2;0.9;;;;;;;35.45;30.53809;941.5348;;;;
2019/06/24 08:53:13;;;;;;;4.3;0.8;;;;;;;35.86;30.89258;941.5;;;;
2019/06/24 08:55:43;;;;;;;2.5;0.7;;;;;;;35.51;30.91699;941.5363;;;;
2019/06/24 08:58:19;;;;;;;0.9;0.6;;;;;;;35.6;30.60938;941.5796;;;;
2019/06/24 09:00:50;;;;;;;2.1;0.7;;;;;;;35.74;32.00781;941.5721;;;;
2019/06/24 09:03:24;;;;;;;4.4;0.9;;;;;;;35;33.76563;941.5836;;;;
2019/06/24 09:05:45;;;;;;;1.7;0.9;;;;;;;34.74;34.1084;941.4545;;;;
2019/06/24 09:08:15;;;;;;;2.9;1.1;;;;;;;34.55;32.73242;941.5128;;;;
2019/06/24 09:10:39;;;;;;;2.3;1.1;;;;;;;33.44;34.98535;941.4568;;;;
2019/06/24 09:13:05;;;;;;;3.4;1;;;;;;;33.07;36.08496;941.4714;;;;
2019/06/24 09:15:48;;;;;;;1.8;1.1;;;;;;;32.79;36.83203;941.5427;;;;
2019/06/24 09:18:40;;;;;;;1.6;1.1;;;;;;;32.68;39.87207;941.5751;;;;
2019/06/24 09:21:12;;;;;;;2;0.9;;;;;;;32.3;38.66309;941.5282;;;;
2019/06/24 09:23:45;;;;;;;2.5;1.1;;;;;;;32.1;38.57422;941.493;;;;
2019/06/24 09:26:18;;;;;;;2.2;1.3;;;;;;;31.44;41.53516;941.5073;;;;
2019/06/24 09:28:49;;;;;;;3.5;1.1;;;;;;;31.46;41.53516;941.452;;;;
2019/06/24 09:31:25;;;;;;;2.7;1.1;;;;;;;30.97;40.87988;941.4397;;;;
2019/06/24 09:33:43;;;;;;;3.6;1.1;;;;;;;30.99;40.81152;941.4567;;;;
2019/06/24 09:36:08;;;;;;;2.2;1.1;;;;;;;30.94;41.2959;941.366;;;;
2019/06/24 09:38:39;;;;;;;5.7;1.4;;;;;;;30.67;44.04492;941.4814;;;;
2019/06/24 09:41:10;;;;;;;3.5;1.3;;;;;;;30.53;43.89941;941.4662;;;;
2019/06/24 09:43:37;;;;;;;1.7;1.1;;;;;;;30.52;43.20605;941.449;;;;
2019/06/24 09:46:09;;;;;;;2.4;1.2;;;;;;;30.51;43.80176;941.4294;;;;
2019/06/24 09:48:35;;;;;;;1.5;1.1;;;;;;;30.22;45.80371;941.4084;;;;
2019/06/24 09:51:07;;;;;;;2.1;1.2;;;;;;;29.95;43.55664;941.3873;;;;
2019/06/24 09:53:48;;;;;;;1.6;1.2;;;;;;;30.02;43.59961;941.3535;;;;
2019/06/24 09:56:23;;;;;;;2.8;1.2;;;;;;;30.08;45.28809;941.366;;;;
2019/06/24 09:58:50;;;;;;;1.7;1.2;;;;;;;29.98;44.15625;941.3389;;;;
2019/06/24 10:01:19;;;;;;;3.3;1.2;;;;;;;30.06;45.82227;941.3437;;;;
2019/06/24 10:03:58;;;;;;;1.1;1;;;;;;;30.1;45.9707;941.2925;;;;
2019/06/24 10:06:36;;;;;;;2.5;1.2;;;;;;;29.94;44.57031;941.323;;;;
2019/06/24 10:09:11;;;;;;;3.7;1.2;;;;;;;29.95;45.78906;941.3914;;;;
2019/06/24 10:11:39;;;;;;;3.2;1.4;;;;;;;29.99;45.69727;941.3323;;;;
2019/06/24 10:14:12;;;;;;;3.6;1.2;;;;;;;29.73;45.38379;941.3061;;;;
2019/06/24 10:16:39;;;;;;;4.2;1.2;;;;;;;29.61;45.21777;941.3303;;;;
2019/06/24 10:19:08;;;;;;;1.6;1;;;;;;;29.61;44.53711;941.3617;;;;
2019/06/24 10:21:39;;;;;;;2.6;1.1;;;;;;;29.65;44.7207;941.3544;;;;
2019/06/24 10:24:10;;;;;;;4.5;1.2;;;;;;;29.81;47.43164;941.3183;;;;
2019/06/24 10:26:55;;;;;;;4.8;1.3;;;;;;;29.87;44.30078;941.3318;;;;
2019/06/24 10:29:20;;;;;;;2.1;1.2;;;;;;;30.06;44.33105;941.3397;;;;
2019/06/24 10:31:49;;;;;;;5.2;1.6;;;;;;;30.01;43.6582;941.2811;;;;
2019/06/24 10:34:23;;;;;;;2.8;1.3;;;;;;;29.92;45.23633;941.2651;;;;
2019/06/24 10:36:57;;;;;;;2.6;1.4;;;;;;;29.69;44.90234;941.2258;;;;
2019/06/24 10:39:22;;;;;;;4.5;1.3;;;;;;;29.61;47.30371;941.2606;;;;
2019/06/24 10:42:02;;;;;;;3.5;1.2;;;;;;;29.41;47.83008;941.2314;;;;
2019/06/24 10:44:43;;;;;;;2.6;1.2;;;;;;;29.34;48.53809;941.2521;;;;
2019/06/24 10:47:21;;;;;;;4.4;1.3;;;;;;;29.52;46.85254;941.2405;;;;
2019/06/24 10:50:01;;;;;;;3;1.2;;;;;;;29.38;48.76855;941.2458;;;;
2019/06/24 10:52:30;;;;;;;2.5;1.1;;;;;;;29.64;49.27344;941.1454;;;;
2019/06/24 10:54:58;;;;;;;2.1;1.4;;;;;;;29.79;48.36035;941.0633;;;;
2019/06/24 10:57:39;;;;;;;4.5;1.3;;;;;;;29.8;47.8125;941.079;;;;
2019/06/24 11:00:04;;;;;;;9;1.5;;;;;;;29.59;49.6377;941.0938;;;;
2019/06/24 11:02:33;;;;;;;2.2;1.7;;;;;;;29.26;49.01758;941.0731;;;;
2019/06/24 11:05:05;;;;;;;2.7;1.3;;;;;;;29.37;50.05469;941.1209;;;;
2019/06/24 11:07:39;;;;;;;1.3;1.2;;;;;;;29.38;49.14941;941.1367;;;;
2019/06/24 11:10:10;;;;;;;3.3;1.3;;;;;;;29.53;47.61719;941.0948;;;;
2019/06/24 11:12:37;;;;;;;3.9;1.3;;;;;;;29.64;47.36621;941.0981;;;;
2019/06/24 11:15:03;;;;;;;3.1;1.4;;;;;;;29.46;48.01465;941.0879;;;;
2019/06/24 11:17:58;;;;;;;1.6;1.3;;;;;;;29.34;48.57422;941.0591;;;;
2019/06/24 11:20:34;;;;;;;1.7;1.2;;;;;;;29.34;46.96484;941.0513;;;;
2019/06/24 11:23:13;;;;;;;3.3;1.3;;;;;;;29.43;49.04883;941.0359;;;;
2019/06/24 11:25:44;;;;;;;3;1.3;;;;;;;29.59;47.59863;941.0622;;;;
2019/06/24 11:28:21;;;;;;;4.2;1.5;;;;;;;29.42;47.90332;940.9413;;;;
2019/06/24 11:30:51;;;;;;;2.1;1.3;;;;;;;29.61;49.16211;940.9283;;;;
2019/06/24 11:33:19;;;;;;;2.4;1.3;;;;;;;29.86;47.94922;940.9482;;;;
2019/06/24 11:35:54;;;;;;;1.7;1.2;;;;;;;29.85;46.71875;940.9192;;;;
2019/06/24 11:38:24;;;;;;;4.3;1.4;;;;;;;29.75;46.19727;940.9002;;;;
2019/06/24 11:40:56;;;;;;;2.5;1.4;;;;;;;29.68;48.11035;940.9683;;;;
2019/06/24 11:43:20;;;;;;;2.4;1.3;;;;;;;29.6;46.91992;940.8994;;;;
2019/06/24 11:45:46;;;;;;;2.4;1.2;;;;;;;29.48;47.3623;940.9055;;;;
2019/06/24 11:48:13;;;;;;;5.1;1.3;;;;;;;29.64;47.60449;940.8972;;;;
2019/06/24 11:50:54;;;;;;;4;1.4;;;;;;;29.91;47.17969;940.9037;;;;
2019/06/24 11:53:24;;;;;;;4.6;1.3;;;;;;;29.66;49.34668;940.9105;;;;
2019/06/24 11:55:48;;;;;;;3.6;1.3;;;;;;;29.71;48.00586;940.841;;;;
2019/06/24 11:58:25;;;;;;;5.7;1.5;;;;;;;29.63;47.5918;940.8365;;;;
2019/06/24 12:01:03;;;;;;;2.9;1.2;;;;;;;29.46;47.2998;940.9041;;;;
2019/06/24 12:03:43;;;;;;;3.3;1.3;;;;;;;29.73;47.00488;940.9041;;;;
2019/06/24 12:06:09;;;;;;;4.6;1.3;;;;;;;29.68;47.34668;940.8803;;;;
2019/06/24 12:15:15;;;;;;;2.9;1.3;;;;;;;29.81;45.89355;940.8585;;;;
2019/06/24 12:17:41;;;;;;;4.1;1.3;;;;;;;29.79;44.94824;940.907;;;;
2019/06/24 12:20:25;;;;;;;3.4;1.2;;;;;;;29.69;48.20508;940.7963;;;;
2019/06/24 12:23:02;;;;;;;2.2;1.3;;;;;;;29.81;45.60742;940.8636;;;;
2019/06/24 12:25:30;;;;;;;1.9;1.3;;;;;;;29.76;46.30469;940.8372;;;;
2019/06/24 12:27:54;;;;;;;5.3;1.3;;;;;;;29.8;47.41797;940.8215;;;;
2019/06/24 12:30:28;;;;;;;1.7;1.3;;;;;;;29.97;45.75391;940.8066;;;;
2019/06/24 12:33:04;;;;;;;2.4;1.3;;;;;;;29.84;46.20605;940.9022;;;;
2019/06/24 12:35:31;;;;;;;3.8;1.5;;;;;;;29.93;48.0752;940.8223;;;;
2019/06/24 12:38:05;;;;;;;1.7;1.4;;;;;;;30.17;47.57617;940.8524;;;;
2019/06/24 12:40:39;;;;;;;5.5;1.3;;;;;;;30.23;48.28809;940.8011;;;;
2019/06/24 12:43:10;;;;;;;2.5;1.5;;;;;;;29.93;46.9082;940.8209;;;;
2019/06/24 12:45:32;;;;;;;4.3;1.5;;;;;;;29.87;47.46094;940.7841;;;;
2019/06/24 12:48:10;;;;;;;2.9;1.5;;;;;;;29.73;47.32715;940.7596;;;;
2019/06/24 12:50:44;;;;;;;5.1;1.5;;;;;;;29.78;47.22656;940.7059;;;;
2019/06/24 12:53:31;;;;;;;4.2;1.7;;;;;;;29.7;46.84668;940.7122;;;;
2019/06/24 12:56:03;;;;;;;2.9;1.6;;;;;;;29.84;48.44824;940.7576;;;;
2019/06/24 12:58:36;;;;;;;4.7;1.5;;;;;;;29.65;49.5127;940.7594;;;;
2019/06/24 13:01:00;;;;;;;4.3;1.5;;;;;;;29.61;48.49512;940.7313;;;;
2019/06/24 13:03:39;;;;;;;2;1.6;;;;;;;29.64;46.65039;940.7922;;;;
2019/06/24 13:06:00;;;;;;;4.3;1.5;;;;;;;29.43;46.04492;940.7339;;;;
2019/06/24 13:08:25;;;;;;;2.9;1.5;;;;;;;29.4;47.00781;940.8348;;;;
2019/06/24 13:11:00;;;;;;;4.2;1.5;;;;;;;29.66;49.18066;940.7227;;;;
2019/06/24 13:13:41;;;;;;;4;1.6;;;;;;;29.72;48.00684;940.7517;;;;
2019/06/24 13:16:13;;;;;;;4;1.5;;;;;;;29.81;47.0625;940.8019;;;;
2019/06/24 13:18:42;;;;;;;2.2;1.3;;;;;;;29.58;46.1084;940.7838;;;;
2019/06/24 13:21:22;;;;;;;2.9;1.4;;;;;;;29.49;47.05176;940.7203;;;;
2019/06/24 13:23:53;;;;;;;3.1;1.6;;;;;;;29.55;48.31055;940.7455;;;;
2019/06/24 13:26:20;;;;;;;3;1.6;;;;;;;29.48;48.43457;940.8267;;;;
2019/06/24 13:28:56;;;;;;;2.7;1.6;;;;;;;29.6;47.44531;940.8153;;;;
2019/06/24 13:31:34;;;;;;;3.7;1.6;;;;;;;29.74;47.61523;940.7623;;;;
2019/06/24 13:34:07;;;;;;;4.6;1.6;;;;;;;29.74;46.94727;940.74;;;;
2019/06/24 13:36:39;;;;;;;4.9;1.7;;;;;;;29.77;47.53418;940.7177;;;;
2019/06/24 13:39:14;;;;;;;3.3;1.6;;;;;;;29.84;46.95801;940.7932;;;;
2019/06/24 13:41:56;;;;;;;3.2;1.6;;;;;;;29.72;46.95703;940.7425;;;;
2019/06/24 13:44:36;;;;;;;3.2;1.7;;;;;;;29.75;46.16211;940.7505;;;;
2019/06/24 13:47:18;;;;;;;5.7;1.7;;;;;;;29.75;46.70996;940.7728;;;;
2019/06/24 13:49:46;;;;;;;2.2;1.5;;;;;;;29.65;45.91211;940.7554;;;;
2019/06/24 13:52:19;;;;;;;5.4;1.8;;;;;;;29.77;46.98535;940.7519;;;;
2019/06/24 13:54:50;;;;;;;5.6;1.7;;;;;;;29.7;46.75293;940.7726;;;;
2019/06/24 13:57:21;;;;;;;4.8;1.9;;;;;;;29.6;45.84766;940.8075;;;;
2019/06/24 13:59:47;;;;;;;5.8;1.8;;;;;;;29.59;47.01563;940.8035;;;;
2019/06/24 14:02:18;;;;;;;3.9;1.8;;;;;;;29.66;47.47559;940.6701;;;;
2019/06/24 14:04:50;;;;;;;5.4;1.8;;;;;;;29.75;48.25977;940.8122;;;;
2019/06/24 14:07:23;;;;;;;2.6;1.7;;;;;;;29.75;47.46094;940.8385;;;;
2019/06/24 14:09:58;;;;;;;5.1;1.8;;;;;;;29.59;46.95508;940.818;;;;
2019/06/24 14:12:35;;;;;;;4;1.9;;;;;;;29.52;47.2334;940.7244;;;;
2019/06/24 14:15:01;;;;;;;2.8;1.9;;;;;;;29.51;46.9834;940.7611;;;;
2019/06/24 14:17:47;;;;;;;3.7;1.8;;;;;;;29.35;47.50293;940.8307;;;;
2019/06/24 14:20:06;;;;;;;4.1;1.8;;;;;;;29.54;46.35449;940.7508;;;;
2019/06/24 14:22:39;;;;;;;5.4;1.9;;;;;;;29.59;48.1123;940.764;;;;
2019/06/24 14:25:05;;;;;;;3.3;1.9;;;;;;;29.42;46.46094;940.684;;;;
2019/06/24 14:27:43;;;;;;;3.5;1.7;;;;;;;29.48;48.32715;940.7388;;;;
2019/06/24 14:30:19;;;;;;;6.2;2.1;;;;;;;29.59;49.32813;940.6984;;;;
2019/06/24 14:32:44;;;;;;;2.9;1.7;;;;;;;29.51;46.51855;940.7297;;;;
2019/06/24 14:35:17;;;;;;;3.8;1.9;;;;;;;29.48;47.96973;940.7216;;;;
2019/06/24 14:37:43;;;;;;;3.1;2.1;;;;;;;29.26;46.6582;940.7764;;;;
2019/06/24 14:40:13;;;;;;;5.8;2.1;;;;;;;29.36;49.2793;940.7586;;;;
2019/06/24 14:42:41;;;;;;;5;2;;;;;;;29.45;48.8125;940.775;;;;
2019/06/24 14:45:04;;;;;;;4.8;2.1;;;;;;;29.43;47.99902;940.7261;;;;
2019/06/24 14:47:31;;;;;;;4.7;2;;;;;;;29.42;48.21289;940.814;;;;
2019/06/24 14:50:04;;;;;;;4.8;2.3;;;;;;;29.44;48.23926;940.8722;;;;
2019/06/24 14:52:35;;;;;;;3.1;1.9;;;;;;;29.24;48.28906;940.8223;;;;
2019/06/24 14:55:04;;;;;;;2.8;2.1;;;;;;;29.25;49.1123;940.8433;;;;
2019/06/24 14:57:40;;;;;;;4.3;2.1;;;;;;;29.23;50.01465;940.7668;;;;
2019/06/24 15:00:05;;;;;;;3.1;2;;;;;;;29.15;47.49316;940.7979;;;;
2019/06/24 15:02:47;;;;;;;4.8;2.2;;;;;;;29.17;48.6875;940.7941;;;;
2019/06/24 15:05:25;;;;;;;4.4;2.4;;;;;;;29.09;48.87988;940.808;;;;
2019/06/24 15:07:55;;;;;;;8.2;2.3;;;;;;;28.94;50.1377;940.8502;;;;
2019/06/24 15:10:25;;;;;;;2.6;2.1;;;;;;;28.88;49.22656;940.9297;;;;
2019/06/24 15:13:04;;;;;;;4.3;2.3;;;;;;;28.81;47.95605;940.9155;;;;
2019/06/24 15:15:39;;;;;;;6.9;2.3;;;;;;;28.91;48.7666;940.7975;;;;
2019/06/24 15:18:15;;;;;;;7.6;2.3;;;;;;;28.82;50.70703;940.8697;;;;
2019/06/24 15:20:46;;;;;;;5.7;2.2;;;;;;;28.86;49.45117;940.8719;;;;
2019/06/24 15:23:07;;;;;;;5.2;2.4;;;;;;;28.91;47.99121;940.9077;;;;
2019/06/24 15:25:42;;;;;;;4.3;2.4;;;;;;;28.91;50.13477;940.9286;;;;
2019/06/24 15:28:14;;;;;;;2.6;2.1;;;;;;;28.74;49.39063;940.8993;;;;
2019/06/24 15:30:44;;;;;;;5.4;2.3;;;;;;;28.82;49.20801;940.9575;;;;
2019/06/24 15:33:12;;;;;;;4.4;2.1;;;;;;;28.78;49.65625;940.9232;;;;
2019/06/24 15:35:39;;;;;;;5.7;2.2;;;;;;;28.59;49.32617;940.9595;;;;
2019/06/24 15:38:08;;;;;;;7.5;2.6;;;;;;;28.56;49.26367;940.9422;;;;
2019/06/24 15:40:38;;;;;;;4.4;2.4;;;;;;;28.64;48.82031;940.9772;;;;
2019/06/24 15:43:09;;;;;;;4.9;2.1;;;;;;;28.59;48.12402;940.9949;;;;
2019/06/24 15:45:36;;;;;;;4.6;2.2;;;;;;;28.62;47.75879;940.9899;;;;
2019/06/24 15:48:17;;;;;;;3.9;2.2;;;;;;;28.5;47.78223;940.9522;;;;
2019/06/24 15:50:51;;;;;;;4.8;2.2;;;;;;;28.45;48.52637;940.9597;;;;
2019/06/24 15:53:34;;;;;;;4.7;2.4;;;;;;;28.64;49.66504;940.9772;;;;
2019/06/24 15:56:03;;;;;;;10.5;2.2;;;;;;;28.6;49.50391;941.0106;;;;
2019/06/24 15:58:30;;;;;;;7.7;2.6;;;;;;;28.5;48.49414;941.0229;;;;
2019/06/24 16:00:59;;;;;;;6.1;2.3;;;;;;;28.51;48.22266;941.0244;;;;
2019/06/24 16:03:26;;;;;;;4.1;2.3;;;;;;;28.33;47.94238;941.0369;;;;
2019/06/24 16:05:53;;;;;;;5.2;2.2;;;;;;;28.31;48.57031;941.0223;;;;
2019/06/24 16:08:35;;;;;;;3;2.3;;;;;;;28.23;48.0625;941.0563;;;;
2019/06/24 16:11:22;;;;;;;5.1;2.7;;;;;;;28.3;49.81641;941.1113;;;;
2019/06/24 16:13:59;;;;;;;4.7;2.3;;;;;;;28.21;48.66602;941.1124;;;;
2019/06/24 16:16:31;;;;;;;6.3;2.5;;;;;;;28.13;48.30078;941.0946;;;;
2019/06/24 16:19:02;;;;;;;6.5;2.3;;;;;;;28.21;48.2627;941.0862;;;;
2019/06/24 16:21:27;;;;;;;8.4;2.4;;;;;;;28.13;48.46777;941.0854;;;;
2019/06/24 16:24:08;;;;;;;4.4;2;;;;;;;28.19;48.46094;941.1332;;;;
2019/06/24 16:26:33;;;;;;;4;2.3;;;;;;;28.09;48.98633;941.1139;;;;
2019/06/24 16:29:14;;;;;;;7;2.3;;;;;;;28.17;49.2793;941.171;;;;
2019/06/24 16:31:49;;;;;;;7.6;2.3;;;;;;;28.11;48.15527;941.0852;;;;
2019/06/24 16:34:23;;;;;;;8.7;2.2;;;;;;;28.13;48.34863;941.0723;;;;